Aérodrome :
LOGIN :

S'inscrire | Disclaimer

   EN    FR    IT 

 










Légende :    VFR   VFR Marginal   IFR   IFR Intensif   IFR Très Intensif
Visi : 
Plafond : 
>= 8 km
>= 3000ft
5 à 8 km
1000 à 3000 ft
1500m à 5 km
500 à 1000 ft
800 à 1500m
200 à 500 ft
< 800m
< 200 ft
Symboles :   Orages  Brouillard  Fortes neiges  Fortes précipitations  Vent > 20 kt
SIGMETs :   Divers  Orages  Givrage  Turbulence  Onde Orograph.  Cendres Volcan.







- Altitude de l'aérodrome : 151 ft
- Code IATA : LSZ


LDLO - Lošinj Island

DERNIER METAR :
  • 190800Z 05008KT CAVOK 18/05 Q1029

METARs EXPIRÉS :
  • 190700Z 03008KT CAVOK 17/06 Q1028
  • 190600Z 03009KT CAVOK 15/06 Q1028

TAF TAF LDLO
Valide du 19 à 07h jusqu'au 20 à 06h UTC


190605Z 1907/2006 02008KT CAVOK TX20/1913Z TN13/2004Z
BECMG 1910/1912 29010KT
BECMG 1918/1920 02008KT
Pas de NOTAMs connus pour ce terrain.



MET'MAP, la Météo Aéronautique d'un coup d'oeil ! - Copyright ORBIFLY Décembre 2007 - Disclaimer

ORBIFLY MET'MAP TEAM :

Programmation & Développement : Alexandra Zaïnal
Conception & Développement : Baudouin d'Aumeries
Co-Programmation & Développement : Marc-Olivier Méhu
Soutien technique & logistique : Manuel Goepfert

Contact : metmap@orbifly.com




SOURCES & CREDITS :

   NOAA